createdAt,value
2022-09-28T00:01:21.423Z,79.16
2022-09-28T00:03:50.959Z,79.68
2022-09-28T00:06:20.413Z,79.70
2022-09-28T00:08:50.117Z,79.51
2022-09-28T00:11:21.655Z,79.72
2022-09-28T00:13:52.247Z,79.91
2022-09-28T00:16:22.511Z,79.88
2022-09-28T00:18:51.170Z,80.31
2022-09-28T00:21:21.522Z,79.52
2022-09-28T00:24:10.971Z,80.05
2022-09-28T00:26:42.077Z,80.37
2022-09-28T00:29:17.208Z,79.97
2022-09-28T00:31:45.354Z,80.08
2022-09-28T00:34:13.681Z,80.24
2022-09-28T00:36:45.585Z,80.15
2022-09-28T00:39:16.398Z,79.95
2022-09-28T00:41:46.340Z,80.25
2022-09-28T00:44:40.039Z,80.43
2022-09-28T00:47:32.596Z,80.33
2022-09-28T00:50:04.161Z,80.35
2022-09-28T00:52:36.922Z,80.19
2022-09-28T00:55:08.793Z,80.26
2022-09-28T00:57:41.063Z,80.04
2022-09-28T01:00:10.043Z,80.41
2022-09-28T01:02:37.928Z,80.24
2022-09-28T01:05:08.095Z,80.00
2022-09-28T01:07:45.344Z,79.82
2022-09-28T01:10:14.245Z,79.91
2022-09-28T01:12:43.531Z,80.04
2022-09-28T01:15:12.218Z,80.34
2022-09-28T01:17:58.270Z,79.59
2022-09-28T01:20:54.204Z,79.05
2022-09-28T01:23:58.322Z,78.58
2022-09-28T01:26:56.912Z,78.60
2022-09-28T01:29:40.108Z,78.59
2022-09-28T01:32:16.352Z,78.11
2022-09-28T01:34:53.753Z,78.25
2022-09-28T01:37:27.153Z,77.98
2022-09-28T01:39:58.358Z,78.13
2022-09-28T01:42:34.075Z,78.14
2022-09-28T01:45:08.515Z,77.85
2022-09-28T01:47:40.807Z,77.57
2022-09-28T01:50:13.971Z,77.93
2022-09-28T01:52:50.287Z,77.65
2022-09-28T01:55:25.682Z,77.80
2022-09-28T01:58:00.576Z,77.42
2022-09-28T02:00:29.495Z,77.40
2022-09-28T02:03:02.909Z,77.82
2022-09-28T02:05:40.779Z,77.55
2022-09-28T02:08:15.266Z,77.36
2022-09-28T02:10:48.790Z,77.60
2022-09-28T02:13:21.955Z,77.84
2022-09-28T02:15:54.708Z,78.01
2022-09-28T02:18:22.636Z,77.74
2022-09-28T02:20:57.627Z,78.14
2022-09-28T02:23:30.084Z,77.85
2022-09-28T02:26:03.142Z,78.15
2022-09-28T02:28:33.144Z,78.54
2022-09-28T02:31:02.240Z,77.85
2022-09-28T02:33:37.987Z,78.46
2022-09-28T02:36:06.466Z,78.56
2022-09-28T02:38:39.036Z,78.67
2022-09-28T02:41:16.742Z,78.94
2022-09-28T02:43:58.136Z,79.01
2022-09-28T02:46:33.188Z,79.11
2022-09-28T02:49:25.755Z,78.46
2022-09-28T02:52:09.402Z,78.30
2022-09-28T02:54:59.894Z,78.52
2022-09-28T02:57:39.661Z,79.06
2022-09-28T03:00:12.650Z,79.27
2022-09-28T03:02:53.875Z,78.56
2022-09-28T03:05:31.037Z,79.05
2022-09-28T03:08:01.256Z,79.00
2022-09-28T03:10:38.440Z,79.31
2022-09-28T03:13:07.224Z,79.03
2022-09-28T03:15:38.202Z,79.18
2022-09-28T03:18:09.580Z,79.13
2022-09-28T03:20:37.596Z,79.29
2022-09-28T03:23:25.244Z,79.19
2022-09-28T03:25:56.059Z,79.35
2022-09-28T03:28:28.191Z,79.53
2022-09-28T03:30:57.865Z,79.64
2022-09-28T03:33:31.094Z,79.51
2022-09-28T03:35:59.454Z,79.39
2022-09-28T03:38:36.374Z,79.60
2022-09-28T03:41:04.523Z,79.67
2022-09-28T03:43:36.519Z,79.45
2022-09-28T03:46:06.937Z,79.65
2022-09-28T03:48:40.947Z,79.53
2022-09-28T03:51:12.496Z,79.90
2022-09-28T03:53:43.306Z,79.79
2022-09-28T03:56:14.785Z,80.16
2022-09-28T03:58:43.240Z,79.46
2022-09-28T04:01:17.538Z,79.46
2022-09-28T04:03:55.121Z,79.83
2022-09-28T04:06:24.099Z,79.58
2022-09-28T04:08:52.247Z,79.53
2022-09-28T04:11:20.046Z,79.54
2022-09-28T04:13:50.212Z,79.99
2022-09-28T04:16:19.701Z,80.12
2022-09-28T04:19:07.873Z,80.22
2022-09-28T04:21:41.476Z,79.99
2022-09-28T04:24:12.589Z,79.96
2022-09-28T04:26:41.019Z,80.21
2022-09-28T04:29:18.924Z,80.20
2022-09-28T04:31:56.216Z,80.30
2022-09-28T04:34:43.732Z,80.00
2022-09-28T04:37:15.929Z,80.22
2022-09-28T04:39:48.381Z,79.98
2022-09-28T04:42:19.311Z,80.47
2022-09-28T04:44:47.587Z,80.33
2022-09-28T04:47:16.882Z,80.49
2022-09-28T04:50:03.475Z,80.71
2022-09-28T04:52:37.442Z,80.28
2022-09-28T04:55:05.889Z,80.47
2022-09-28T04:57:35.272Z,80.50
2022-09-28T05:00:03.200Z,80.08
2022-09-28T05:02:34.285Z,79.80
2022-09-28T05:05:20.671Z,80.77
2022-09-28T05:08:06.770Z,80.64
2022-09-28T05:10:40.369Z,80.83
2022-09-28T05:13:08.645Z,80.82
2022-09-28T05:15:37.203Z,81.12
2022-09-28T05:18:07.200Z,81.13
2022-09-28T05:20:47.636Z,80.96
2022-09-28T05:23:16.253Z,80.50
2022-09-28T05:25:45.242Z,80.76
2022-09-28T05:28:23.857Z,80.73
2022-09-28T05:31:17.242Z,80.66
2022-09-28T05:34:09.523Z,80.37
2022-09-28T05:36:41.188Z,80.24
2022-09-28T05:39:09.698Z,80.30
2022-09-28T05:41:39.087Z,80.33
2022-09-28T05:44:07.096Z,80.46
2022-09-28T05:46:36.259Z,80.52
2022-09-28T05:49:04.693Z,80.87
2022-09-28T05:51:34.162Z,80.46
2022-09-28T05:54:05.648Z,81.42
2022-09-28T05:56:34.765Z,80.81
2022-09-28T05:59:06.234Z,80.40
2022-09-28T06:01:34.204Z,80.51
2022-09-28T06:04:03.063Z,80.37
2022-09-28T06:06:32.147Z,80.78
2022-09-28T06:09:01.461Z,80.13
2022-09-28T06:11:43.671Z,80.85
2022-09-28T06:14:21.367Z,81.06
2022-09-28T06:16:51.153Z,81.37
2022-09-28T06:19:19.622Z,80.79
2022-09-28T06:22:06.496Z,81.04
2022-09-28T06:24:43.906Z,80.72
2022-09-28T06:27:11.871Z,81.06
2022-09-28T06:29:39.627Z,81.27
2022-09-28T06:32:08.406Z,81.32
2022-09-28T06:34:37.916Z,81.59
2022-09-28T06:37:05.711Z,81.70
2022-09-28T06:39:34.043Z,81.65
2022-09-28T06:42:03.824Z,81.91
2022-09-28T06:44:52.144Z,82.27
2022-09-28T06:47:33.306Z,82.24
2022-09-28T06:50:26.396Z,82.28
2022-09-28T06:53:20.725Z,82.73
2022-09-28T06:55:52.569Z,82.12
2022-09-28T06:58:22.809Z,81.90
2022-09-28T07:00:53.037Z,81.90
2022-09-28T07:03:23.011Z,81.39
2022-09-28T07:05:55.244Z,80.97
2022-09-28T07:08:38.005Z,81.50
2022-09-28T07:11:29.101Z,81.46
2022-09-28T07:14:34.722Z,80.88
2022-09-28T07:17:14.019Z,80.70
2022-09-28T07:19:46.428Z,80.36
2022-09-28T07:22:18.981Z,81.26
2022-09-28T07:24:57.652Z,80.39
2022-09-28T07:27:44.105Z,80.60
2022-09-28T07:30:36.350Z,81.13
2022-09-28T07:33:17.915Z,81.22
2022-09-28T07:36:06.396Z,80.92
2022-09-28T07:38:35.251Z,81.40
2022-09-28T07:41:11.480Z,80.98
2022-09-28T07:43:44.578Z,81.22
2022-09-28T07:46:14.052Z,81.65
2022-09-28T07:48:52.721Z,81.23
2022-09-28T07:51:25.770Z,81.88
2022-09-28T07:54:22.950Z,81.87
2022-09-28T07:57:09.420Z,81.21
2022-09-28T07:59:46.068Z,81.94
2022-09-28T08:02:44.940Z,82.07
2022-09-28T08:05:19.458Z,81.84
2022-09-28T08:07:50.159Z,82.02
2022-09-28T08:10:19.449Z,81.93
2022-09-28T08:12:47.374Z,82.10
2022-09-28T08:15:37.130Z,81.55
2022-09-28T08:18:33.013Z,81.64
2022-09-28T08:21:19.279Z,81.91
2022-09-28T08:23:47.681Z,81.63
2022-09-28T08:26:16.096Z,81.56
2022-09-28T08:28:55.913Z,81.99
2022-09-28T08:31:50.085Z,82.15
2022-09-28T08:34:41.848Z,82.26
2022-09-28T08:37:16.149Z,82.10
2022-09-28T08:40:13.616Z,81.98
2022-09-28T08:43:07.427Z,82.56
2022-09-28T08:46:04.888Z,82.28
2022-09-28T08:49:23.822Z,81.62
2022-09-28T08:52:14.424Z,81.24
2022-09-28T08:55:02.432Z,81.08
2022-09-28T08:57:46.878Z,81.08
2022-09-28T09:00:22.255Z,80.72
2022-09-28T09:02:56.851Z,81.05
2022-09-28T09:05:48.603Z,80.72
2022-09-28T09:08:39.384Z,80.29
2022-09-28T09:11:18.936Z,80.21
2022-09-28T09:14:08.950Z,80.17
2022-09-28T09:16:49.433Z,79.94
2022-09-28T09:19:42.584Z,80.14
2022-09-28T09:22:18.588Z,80.06
2022-09-28T09:24:52.087Z,79.60
2022-09-28T09:27:42.262Z,79.55
2022-09-28T09:30:16.065Z,79.46
2022-09-28T09:33:07.415Z,79.20
2022-09-28T09:36:03.511Z,79.30
2022-09-28T09:39:12.702Z,79.51
2022-09-28T09:42:36.940Z,79.54
2022-09-28T09:45:50.644Z,79.18
2022-09-28T09:48:39.538Z,78.15
2022-09-28T09:51:17.853Z,78.59
2022-09-28T09:53:51.862Z,78.80
2022-09-28T09:56:28.862Z,79.38
2022-09-28T09:59:15.026Z,78.59
2022-09-28T10:02:11.972Z,79.08
2022-09-28T10:04:55.128Z,79.45
2022-09-28T10:07:43.251Z,78.92
2022-09-28T10:10:17.966Z,79.09
2022-09-28T10:12:51.095Z,79.28
2022-09-28T10:15:26.480Z,79.79
2022-09-28T10:18:21.010Z,79.49
2022-09-28T10:21:07.902Z,79.83
2022-09-28T10:24:02.959Z,80.17
2022-09-28T10:26:36.556Z,79.57
2022-09-28T10:29:13.099Z,79.60
2022-09-28T10:31:47.291Z,80.16
2022-09-28T10:34:28.591Z,79.97
2022-09-28T10:37:00.771Z,80.18
2022-09-28T10:39:37.763Z,79.78
2022-09-28T10:42:09.759Z,79.68
2022-09-28T10:44:52.306Z,79.76
2022-09-28T10:47:32.641Z,79.69
2022-09-28T10:50:01.534Z,80.06
2022-09-28T10:52:41.558Z,78.69
2022-09-28T10:55:36.843Z,79.00
2022-09-28T10:58:26.371Z,78.75
2022-09-28T11:01:02.027Z,78.17
2022-09-28T11:03:32.803Z,78.09
2022-09-28T11:06:11.590Z,77.78
2022-09-28T11:08:44.652Z,77.55
2022-09-28T11:11:20.466Z,77.67
2022-09-28T11:14:01.311Z,77.35
2022-09-28T11:16:37.697Z,77.03
2022-09-28T11:19:29.636Z,77.75
2022-09-28T11:21:57.562Z,77.55
2022-09-28T11:24:34.896Z,77.76
2022-09-28T11:27:05.222Z,77.70
2022-09-28T11:29:38.753Z,77.42
2022-09-28T11:32:22.908Z,76.95
2022-09-28T11:35:19.751Z,77.30
2022-09-28T11:38:08.088Z,76.84
2022-09-28T11:41:12.441Z,77.14
2022-09-28T11:43:57.617Z,77.12
2022-09-28T11:46:42.060Z,76.44
2022-09-28T11:49:29.082Z,76.85
2022-09-28T11:52:04.316Z,76.39
2022-09-28T11:54:40.587Z,76.61
2022-09-28T11:57:15.849Z,76.46
2022-09-28T11:59:58.058Z,76.68
2022-09-28T12:02:31.978Z,76.27
2022-09-28T12:05:19.898Z,76.44
2022-09-28T12:07:55.063Z,76.11
2022-09-28T12:11:00.707Z,76.42
2022-09-28T12:13:51.481Z,76.27
2022-09-28T12:17:03.752Z,76.45
2022-09-28T12:19:19.624Z,75.89
2022-09-28T12:21:51.145Z,73.61
2022-09-28T12:24:25.792Z,75.97
2022-09-28T12:26:57.555Z,76.42
2022-09-28T12:29:37.113Z,75.38
2022-09-28T12:32:14.144Z,75.44
2022-09-28T12:34:42.553Z,74.89
2022-09-28T12:37:23.136Z,74.94
2022-09-28T12:40:23.922Z,74.06
2022-09-28T12:43:07.252Z,74.60
2022-09-28T12:46:10.502Z,74.42
2022-09-28T12:50:07.260Z,74.00
2022-09-28T12:52:16.698Z,73.51
2022-09-28T12:55:01.234Z,72.51
2022-09-28T12:57:44.727Z,71.56
2022-09-28T13:00:16.611Z,72.90
2022-09-28T13:03:26.953Z,73.26
2022-09-28T13:06:21.999Z,73.23
2022-09-28T13:09:02.681Z,73.77
2022-09-28T13:11:34.970Z,73.27
2022-09-28T13:14:43.944Z,73.97
2022-09-28T13:17:29.182Z,74.28
2022-09-28T13:20:00.971Z,74.60
2022-09-28T13:22:40.013Z,74.95
2022-09-28T13:25:17.674Z,74.98
2022-09-28T13:27:52.412Z,75.04
2022-09-28T13:30:22.179Z,75.19
2022-09-28T13:32:51.378Z,74.71
2022-09-28T13:35:20.515Z,74.89
2022-09-28T13:37:49.131Z,74.87
2022-09-28T13:40:17.429Z,75.15
2022-09-28T13:43:20.274Z,75.14
2022-09-28T13:46:01.243Z,75.10
2022-09-28T13:48:46.084Z,75.54
2022-09-28T13:51:34.477Z,76.14
2022-09-28T13:54:36.091Z,75.77
2022-09-28T13:57:19.692Z,75.23
2022-09-28T14:00:02.731Z,75.67
2022-09-28T14:02:45.793Z,75.16
2022-09-28T14:05:49.740Z,75.49
2022-09-28T14:08:29.912Z,75.78
2022-09-28T14:11:19.335Z,75.63
2022-09-28T14:14:00.233Z,75.50
2022-09-28T14:16:31.880Z,75.28
2022-09-28T14:19:08.332Z,74.81
2022-09-28T14:21:53.616Z,74.85
2022-09-28T14:24:32.197Z,74.90
2022-09-28T14:27:30.313Z,74.71
2022-09-28T14:30:17.346Z,74.68
2022-09-28T14:33:02.741Z,74.99
2022-09-28T14:35:40.398Z,74.54
2022-09-28T14:38:35.424Z,74.80
2022-09-28T14:41:13.707Z,74.22
2022-09-28T14:44:03.696Z,75.06
2022-09-28T14:46:40.525Z,75.08
2022-09-28T14:49:42.850Z,74.62
2022-09-28T14:52:18.404Z,74.77
2022-09-28T14:54:55.383Z,75.21
2022-09-28T14:57:27.160Z,75.00
2022-09-28T14:59:57.224Z,74.75
2022-09-28T15:02:28.086Z,75.39
2022-09-28T15:05:11.971Z,75.22
2022-09-28T15:07:56.385Z,75.69
2022-09-28T15:10:32.491Z,76.27
2022-09-28T15:13:02.480Z,76.71
2022-09-28T15:15:34.783Z,75.89
2022-09-28T15:18:20.285Z,75.68
2022-09-28T15:20:50.544Z,75.40
2022-09-28T15:23:29.069Z,75.06
2022-09-28T15:26:00.122Z,74.92
2022-09-28T15:28:34.103Z,75.19
2022-09-28T15:31:03.364Z,74.84
2022-09-28T15:33:53.517Z,74.88
2022-09-28T15:36:23.518Z,75.06
2022-09-28T15:39:00.430Z,74.53
2022-09-28T15:41:29.579Z,74.98
2022-09-28T15:44:27.151Z,75.32
2022-09-28T15:47:07.203Z,75.05
2022-09-28T15:50:01.503Z,75.55
2022-09-28T15:52:36.043Z,75.06
2022-09-28T15:55:25.369Z,75.09
2022-09-28T15:58:09.305Z,74.29
2022-09-28T16:00:37.281Z,74.32
2022-09-28T16:03:22.099Z,74.81
2022-09-28T16:05:54.827Z,75.43
2022-09-28T16:08:39.386Z,75.25
2022-09-28T16:11:16.223Z,75.01
2022-09-28T16:14:01.589Z,75.33
2022-09-28T16:16:34.046Z,76.16
2022-09-28T16:19:10.173Z,76.36
2022-09-28T16:21:45.667Z,76.04
2022-09-28T16:24:23.451Z,76.28
2022-09-28T16:26:59.478Z,76.07
2022-09-28T16:29:36.638Z,76.17
2022-09-28T16:32:41.633Z,75.97
2022-09-28T16:35:25.435Z,75.69
2022-09-28T16:38:07.380Z,74.71
2022-09-28T16:40:35.545Z,75.27
2022-09-28T16:43:08.215Z,75.62
2022-09-28T16:45:36.975Z,75.24
2022-09-28T16:48:05.570Z,75.96
2022-09-28T16:50:33.468Z,75.58
2022-09-28T16:53:31.829Z,75.50
2022-09-28T16:56:00.723Z,75.76
2022-09-28T16:58:31.265Z,76.31
2022-09-28T17:01:07.512Z,76.77
2022-09-28T17:03:35.864Z,76.45
2022-09-28T17:06:06.034Z,76.03
2022-09-28T17:08:36.818Z,76.60
2022-09-28T17:11:24.542Z,77.05
2022-09-28T17:13:58.825Z,76.51
2022-09-28T17:17:02.625Z,77.28
2022-09-28T17:19:24.336Z,77.13
2022-09-28T17:21:52.869Z,77.11
2022-09-28T17:24:21.798Z,77.57
2022-09-28T17:26:51.965Z,77.32
2022-09-28T17:29:21.239Z,77.42
2022-09-28T17:31:49.169Z,77.96
2022-09-28T17:34:17.818Z,77.74
2022-09-28T17:36:46.698Z,77.91
2022-09-28T17:39:16.541Z,78.09
2022-09-28T17:41:44.437Z,77.71
2022-09-28T17:44:14.659Z,77.77
2022-09-28T17:46:49.590Z,77.29
2022-09-28T17:49:20.136Z,77.35
2022-09-28T17:51:50.041Z,77.28
2022-09-28T17:54:20.855Z,76.33
2022-09-28T17:56:52.046Z,76.19
2022-09-28T17:59:20.326Z,76.69
2022-09-28T18:01:49.842Z,76.60
2022-09-28T18:04:40.140Z,76.29
2022-09-28T18:07:06.236Z,76.38
2022-09-28T18:09:36.581Z,76.63
2022-09-28T18:12:06.312Z,76.32
2022-09-28T18:14:40.019Z,77.08
2022-09-28T18:17:09.225Z,76.58
2022-09-28T18:19:37.145Z,76.38
2022-09-28T18:22:05.022Z,76.88
2022-09-28T18:24:33.029Z,76.89
2022-09-28T18:27:00.951Z,76.76
2022-09-28T18:29:32.882Z,77.04
2022-09-28T18:32:01.432Z,77.83
2022-09-28T18:34:30.645Z,77.36
2022-09-28T18:36:58.425Z,77.56
2022-09-28T18:39:26.724Z,77.71
2022-09-28T18:41:58.007Z,77.68
2022-09-28T18:44:25.815Z,77.88
2022-09-28T18:46:54.355Z,77.93
2022-09-28T18:49:22.593Z,78.24
2022-09-28T18:51:59.590Z,78.13
2022-09-28T18:54:27.819Z,77.77
2022-09-28T18:56:57.164Z,78.23
2022-09-28T18:59:24.976Z,77.69
2022-09-28T19:01:53.005Z,77.58
2022-09-28T19:04:21.408Z,77.92
2022-09-28T19:06:51.835Z,77.13
2022-09-28T19:09:26.411Z,76.82
2022-09-28T19:11:56.582Z,77.36
2022-09-28T19:14:24.401Z,76.28
2022-09-28T19:16:58.325Z,76.54
2022-09-28T19:19:26.183Z,76.68
2022-09-28T19:21:54.221Z,76.54
2022-09-28T19:24:22.691Z,75.98
2022-09-28T19:26:53.425Z,76.15
2022-09-28T19:29:21.792Z,76.01
2022-09-28T19:31:50.500Z,75.85
2022-09-28T19:34:19.085Z,76.29
2022-09-28T19:36:47.009Z,76.42
2022-09-28T19:39:16.231Z,76.88
2022-09-28T19:41:49.453Z,76.83
2022-09-28T19:44:24.734Z,76.35
2022-09-28T19:46:54.709Z,76.41
2022-09-28T19:49:23.200Z,76.32
2022-09-28T19:54:52.113Z,76.94
2022-09-28T19:57:19.949Z,76.53
2022-09-28T19:59:52.526Z,76.39
2022-09-28T20:02:21.159Z,76.35
2022-09-28T20:04:49.500Z,76.75
2022-09-28T20:07:17.237Z,77.03
2022-09-28T20:09:45.256Z,77.02
2022-09-28T20:12:13.067Z,76.56
2022-09-28T20:14:40.870Z,76.07
2022-09-28T20:17:10.854Z,77.05
2022-09-28T20:19:40.334Z,76.48
2022-09-28T20:22:08.619Z,75.96
2022-09-28T20:24:45.300Z,76.06
2022-09-28T20:27:13.085Z,76.61
2022-09-28T20:29:42.904Z,76.44
2022-09-28T20:32:14.219Z,76.53
2022-09-28T20:34:41.999Z,76.25
2022-09-28T20:37:13.653Z,76.41
2022-09-28T20:39:44.790Z,77.52
2022-09-28T20:42:34.848Z,77.65
2022-09-28T20:45:02.818Z,77.43
2022-09-28T20:47:34.632Z,77.20
2022-09-28T20:50:06.596Z,77.26
2022-09-28T20:52:37.029Z,77.33
2022-09-28T20:55:10.608Z,78.09
2022-09-28T20:57:38.428Z,78.19
2022-09-28T21:00:12.485Z,77.83
2022-09-28T21:02:41.838Z,77.64
2022-09-28T21:05:10.146Z,77.94
2022-09-28T21:07:51.903Z,78.36
2022-09-28T21:10:19.804Z,77.87
2022-09-28T21:12:50.234Z,77.89
2022-09-28T21:15:18.083Z,77.35
2022-09-28T21:17:47.443Z,77.06
2022-09-28T21:20:24.152Z,76.90
2022-09-28T21:22:52.697Z,76.74
2022-09-28T21:25:20.633Z,77.28
2022-09-28T21:27:50.753Z,76.58
2022-09-28T21:30:20.071Z,76.71
2022-09-28T21:32:50.768Z,76.80
2022-09-28T21:35:18.616Z,76.33
2022-09-28T21:37:46.774Z,75.91
2022-09-28T21:40:15.307Z,75.77
2022-09-28T21:42:43.072Z,76.29
2022-09-28T21:45:11.024Z,76.20
2022-09-28T21:47:39.807Z,76.10
2022-09-28T21:50:14.075Z,76.42
2022-09-28T21:52:41.668Z,76.60
2022-09-28T21:55:12.808Z,76.36
2022-09-28T21:57:40.672Z,76.16
2022-09-28T22:00:12.849Z,76.07
2022-09-28T22:02:41.255Z,76.33
2022-09-28T22:05:12.644Z,75.68
2022-09-28T22:07:42.335Z,75.44
2022-09-28T22:10:14.162Z,76.07
2022-09-28T22:12:54.532Z,76.20
2022-09-28T22:15:22.346Z,76.24
2022-09-28T22:17:57.838Z,76.22
2022-09-28T22:20:29.313Z,76.82
2022-09-28T22:22:59.907Z,75.97
2022-09-28T22:25:27.743Z,76.89
2022-09-28T22:27:55.578Z,76.76
2022-09-28T22:30:23.417Z,76.18
2022-09-28T22:32:51.228Z,76.86
2022-09-28T22:35:19.337Z,76.41
2022-09-28T22:37:50.137Z,76.12
2022-09-28T22:40:18.470Z,76.38
2022-09-28T22:42:46.304Z,76.51
2022-09-28T22:45:14.409Z,76.19
2022-09-28T22:47:42.708Z,76.83
2022-09-28T22:50:10.985Z,76.67
2022-09-28T22:52:38.996Z,76.83
2022-09-28T22:55:12.810Z,76.56
2022-09-28T22:57:40.660Z,76.18
2022-09-28T23:00:09.815Z,76.59
2022-09-28T23:02:40.792Z,76.41
2022-09-28T23:05:08.788Z,76.23
2022-09-28T23:07:37.023Z,76.86
2022-09-28T23:10:12.798Z,76.06
2022-09-28T23:12:42.331Z,76.60
2022-09-28T23:15:11.380Z,76.41
2022-09-28T23:17:39.170Z,76.61
2022-09-28T23:20:08.069Z,76.62
2022-09-28T23:22:36.103Z,76.79
2022-09-28T23:25:03.977Z,76.78
2022-09-28T23:27:51.500Z,77.46
2022-09-28T23:30:21.083Z,77.34
2022-09-28T23:32:55.443Z,77.51
2022-09-28T23:35:26.476Z,77.84
2022-09-28T23:37:56.587Z,77.58
2022-09-28T23:40:30.325Z,78.32
2022-09-28T23:43:00.185Z,78.68
2022-09-28T23:45:28.263Z,78.21
2022-09-28T23:47:56.841Z,78.53
2022-09-28T23:50:27.151Z,78.58
2022-09-28T23:52:57.079Z,78.32
2022-09-28T23:55:27.754Z,78.86
2022-09-28T23:57:58.755Z,78.70
